sensor_id;sensor_type;location;lat;lon;timestamp;P1;durP1;ratioP1;P2;durP2;ratioP2
75427;SDS011;64008;55.612;37.698;2023-08-12T00:02:08;8.98;;;5.13;;
75427;SDS011;64008;55.612;37.698;2023-08-12T00:04:34;9.30;;;5.55;;
75427;SDS011;64008;55.612;37.698;2023-08-12T00:06:59;8.15;;;5.10;;
75427;SDS011;64008;55.612;37.698;2023-08-12T00:09:25;9.82;;;5.30;;
75427;SDS011;64008;55.612;37.698;2023-08-12T00:11:50;11.63;;;5.80;;
75427;SDS011;64008;55.612;37.698;2023-08-12T00:14:16;8.57;;;4.97;;
75427;SDS011;64008;55.612;37.698;2023-08-12T00:16:41;7.43;;;5.00;;
75427;SDS011;64008;55.612;37.698;2023-08-12T00:19:07;7.95;;;5.40;;
75427;SDS011;64008;55.612;37.698;2023-08-12T00:21:33;10.88;;;5.50;;
75427;SDS011;64008;55.612;37.698;2023-08-12T00:23:59;8.90;;;5.03;;
75427;SDS011;64008;55.612;37.698;2023-08-12T00:26:24;9.02;;;4.93;;
75427;SDS011;64008;55.612;37.698;2023-08-12T00:28:50;8.73;;;4.68;;
75427;SDS011;64008;55.612;37.698;2023-08-12T00:31:16;9.18;;;5.20;;
75427;SDS011;64008;55.612;37.698;2023-08-12T00:33:42;7.15;;;4.88;;
75427;SDS011;64008;55.612;37.698;2023-08-12T00:36:07;9.55;;;4.82;;
75427;SDS011;64008;55.612;37.698;2023-08-12T00:38:33;8.40;;;4.60;;
75427;SDS011;64008;55.612;37.698;2023-08-12T00:40:58;8.77;;;5.15;;
75427;SDS011;64008;55.612;37.698;2023-08-12T00:43:23;9.98;;;4.82;;
75427;SDS011;64008;55.612;37.698;2023-08-12T00:45:49;7.22;;;4.90;;
75427;SDS011;64008;55.612;37.698;2023-08-12T00:48:15;9.30;;;5.07;;
75427;SDS011;64008;55.612;37.698;2023-08-12T00:50:42;8.43;;;5.05;;
75427;SDS011;64008;55.612;37.698;2023-08-12T00:53:08;9.23;;;5.22;;
75427;SDS011;64008;55.612;37.698;2023-08-12T00:55:34;8.90;;;5.10;;
75427;SDS011;64008;55.612;37.698;2023-08-12T00:58:00;10.02;;;5.63;;
75427;SDS011;64008;55.612;37.698;2023-08-12T01:00:27;7.63;;;4.95;;
75427;SDS011;64008;55.612;37.698;2023-08-12T01:02:53;8.43;;;5.25;;
75427;SDS011;64008;55.612;37.698;2023-08-12T01:05:20;8.23;;;5.22;;
75427;SDS011;64008;55.612;37.698;2023-08-12T01:07:46;7.93;;;5.03;;
75427;SDS011;64008;55.612;37.698;2023-08-12T01:10:12;10.57;;;5.28;;
75427;SDS011;64008;55.612;37.698;2023-08-12T01:12:52;8.25;;;5.03;;
75427;SDS011;64008;55.612;37.698;2023-08-12T01:17:50;8.43;;;4.75;;
75427;SDS011;64008;55.612;37.698;2023-08-12T01:20:22;8.77;;;4.78;;
75427;SDS011;64008;55.612;37.698;2023-08-12T01:22:52;7.10;;;4.82;;
75427;SDS011;64008;55.612;37.698;2023-08-12T01:25:23;8.90;;;5.05;;
75427;SDS011;64008;55.612;37.698;2023-08-12T01:27:50;8.63;;;4.47;;
75427;SDS011;64008;55.612;37.698;2023-08-12T01:30:15;8.65;;;4.93;;
75427;SDS011;64008;55.612;37.698;2023-08-12T01:35:35;8.23;;;4.35;;
75427;SDS011;64008;55.612;37.698;2023-08-12T01:38:05;7.05;;;4.95;;
75427;SDS011;64008;55.612;37.698;2023-08-12T01:40:33;10.20;;;5.68;;
75427;SDS011;64008;55.612;37.698;2023-08-12T01:43:01;7.88;;;4.88;;
75427;SDS011;64008;55.612;37.698;2023-08-12T01:45:30;9.25;;;4.75;;
75427;SDS011;64008;55.612;37.698;2023-08-12T01:47:57;8.75;;;5.18;;
75427;SDS011;64008;55.612;37.698;2023-08-12T01:50:22;7.15;;;4.90;;
75427;SDS011;64008;55.612;37.698;2023-08-12T01:52:48;9.02;;;5.18;;
75427;SDS011;64008;55.612;37.698;2023-08-12T01:55:13;8.15;;;4.90;;
75427;SDS011;64008;55.612;37.698;2023-08-12T01:57:39;7.05;;;4.55;;
75427;SDS011;64008;55.612;37.698;2023-08-12T02:00:05;8.77;;;4.95;;
75427;SDS011;64008;55.612;37.698;2023-08-12T02:02:31;8.55;;;4.75;;
75427;SDS011;64008;55.612;37.698;2023-08-12T02:04:56;7.40;;;5.38;;
75427;SDS011;64008;55.612;37.698;2023-08-12T02:07:22;6.63;;;4.80;;
75427;SDS011;64008;55.612;37.698;2023-08-12T02:09:48;8.10;;;4.85;;
75427;SDS011;64008;55.612;37.698;2023-08-12T02:12:13;9.00;;;5.18;;
75427;SDS011;64008;55.612;37.698;2023-08-12T02:14:39;8.15;;;5.00;;
75427;SDS011;64008;55.612;37.698;2023-08-12T02:17:04;8.40;;;4.45;;
75427;SDS011;64008;55.612;37.698;2023-08-12T02:19:31;8.50;;;5.13;;
75427;SDS011;64008;55.612;37.698;2023-08-12T02:21:58;8.98;;;5.00;;
75427;SDS011;64008;55.612;37.698;2023-08-12T02:24:24;7.18;;;4.90;;
75427;SDS011;64008;55.612;37.698;2023-08-12T02:26:49;8.95;;;4.38;;
75427;SDS011;64008;55.612;37.698;2023-08-12T02:29:15;11.40;;;5.35;;
75427;SDS011;64008;55.612;37.698;2023-08-12T02:31:40;8.38;;;5.28;;
75427;SDS011;64008;55.612;37.698;2023-08-12T02:34:06;9.35;;;5.28;;
75427;SDS011;64008;55.612;37.698;2023-08-12T02:36:31;7.85;;;5.07;;
75427;SDS011;64008;55.612;37.698;2023-08-12T02:38:57;8.75;;;4.90;;
75427;SDS011;64008;55.612;37.698;2023-08-12T02:41:22;7.10;;;4.28;;
75427;SDS011;64008;55.612;37.698;2023-08-12T02:43:48;9.23;;;4.85;;
75427;SDS011;64008;55.612;37.698;2023-08-12T02:46:13;7.43;;;4.40;;
75427;SDS011;64008;55.612;37.698;2023-08-12T02:48:40;8.27;;;5.05;;
75427;SDS011;64008;55.612;37.698;2023-08-12T02:51:06;8.02;;;4.95;;
75427;SDS011;64008;55.612;37.698;2023-08-12T02:53:32;8.60;;;4.80;;
75427;SDS011;64008;55.612;37.698;2023-08-12T02:55:57;7.15;;;4.50;;
75427;SDS011;64008;55.612;37.698;2023-08-12T02:58:23;7.32;;;4.45;;
75427;SDS011;64008;55.612;37.698;2023-08-12T03:00:48;7.25;;;4.63;;
75427;SDS011;64008;55.612;37.698;2023-08-12T03:03:13;9.48;;;4.70;;
75427;SDS011;64008;55.612;37.698;2023-08-12T03:05:39;7.90;;;4.93;;
75427;SDS011;64008;55.612;37.698;2023-08-12T03:08:05;7.13;;;4.55;;
75427;SDS011;64008;55.612;37.698;2023-08-12T03:10:32;8.15;;;4.78;;
75427;SDS011;64008;55.612;37.698;2023-08-12T03:12:58;8.15;;;4.95;;
75427;SDS011;64008;55.612;37.698;2023-08-12T03:15:24;7.70;;;4.90;;
75427;SDS011;64008;55.612;37.698;2023-08-12T03:17:49;9.68;;;5.38;;
75427;SDS011;64008;55.612;37.698;2023-08-12T03:20:15;7.55;;;4.63;;
75427;SDS011;64008;55.612;37.698;2023-08-12T03:22:40;8.10;;;4.88;;
75427;SDS011;64008;55.612;37.698;2023-08-12T03:25:06;8.15;;;5.00;;
75427;SDS011;64008;55.612;37.698;2023-08-12T03:27:32;10.93;;;5.10;;
75427;SDS011;64008;55.612;37.698;2023-08-12T03:29:57;8.05;;;5.05;;
75427;SDS011;64008;55.612;37.698;2023-08-12T03:32:24;7.97;;;4.65;;
75427;SDS011;64008;55.612;37.698;2023-08-12T03:34:50;8.70;;;4.63;;
75427;SDS011;64008;55.612;37.698;2023-08-12T03:37:15;7.57;;;4.55;;
75427;SDS011;64008;55.612;37.698;2023-08-12T03:39:41;8.52;;;5.30;;
75427;SDS011;64008;55.612;37.698;2023-08-12T03:42:06;8.93;;;4.75;;
75427;SDS011;64008;55.612;37.698;2023-08-12T03:44:32;10.32;;;4.82;;
75427;SDS011;64008;55.612;37.698;2023-08-12T03:46:57;8.23;;;5.28;;
75427;SDS011;64008;55.612;37.698;2023-08-12T03:49:23;7.00;;;4.55;;
75427;SDS011;64008;55.612;37.698;2023-08-12T03:51:48;9.32;;;5.03;;
75427;SDS011;64008;55.612;37.698;2023-08-12T03:54:14;8.48;;;4.90;;
75427;SDS011;64008;55.612;37.698;2023-08-12T03:56:39;8.13;;;5.10;;
75427;SDS011;64008;55.612;37.698;2023-08-12T03:59:05;7.10;;;4.63;;
75427;SDS011;64008;55.612;37.698;2023-08-12T04:01:30;8.07;;;4.20;;
75427;SDS011;64008;55.612;37.698;2023-08-12T04:03:56;7.28;;;4.82;;
75427;SDS011;64008;55.612;37.698;2023-08-12T04:06:21;10.20;;;4.70;;
75427;SDS011;64008;55.612;37.698;2023-08-12T04:08:47;10.05;;;4.80;;
75427;SDS011;64008;55.612;37.698;2023-08-12T04:11:12;9.35;;;4.47;;
75427;SDS011;64008;55.612;37.698;2023-08-12T04:13:38;8.05;;;5.20;;
75427;SDS011;64008;55.612;37.698;2023-08-12T04:16:03;9.68;;;4.90;;
75427;SDS011;64008;55.612;37.698;2023-08-12T04:18:29;8.15;;;4.88;;
75427;SDS011;64008;55.612;37.698;2023-08-12T04:20:54;6.90;;;4.47;;
75427;SDS011;64008;55.612;37.698;2023-08-12T04:23:20;8.07;;;4.80;;
75427;SDS011;64008;55.612;37.698;2023-08-12T04:25:46;7.07;;;4.60;;
75427;SDS011;64008;55.612;37.698;2023-08-12T04:28:12;7.47;;;4.40;;
75427;SDS011;64008;55.612;37.698;2023-08-12T04:30:45;7.82;;;4.28;;
75427;SDS011;64008;55.612;37.698;2023-08-12T04:33:12;6.95;;;4.57;;
75427;SDS011;64008;55.612;37.698;2023-08-12T04:38:04;7.57;;;3.83;;
75427;SDS011;64008;55.612;37.698;2023-08-12T04:40:29;7.78;;;4.10;;
75427;SDS011;64008;55.612;37.698;2023-08-12T04:42:54;8.10;;;4.32;;
75427;SDS011;64008;55.612;37.698;2023-08-12T04:45:20;8.57;;;4.22;;
75427;SDS011;64008;55.612;37.698;2023-08-12T04:47:45;6.78;;;4.05;;
75427;SDS011;64008;55.612;37.698;2023-08-12T04:50:11;7.95;;;4.10;;
75427;SDS011;64008;55.612;37.698;2023-08-12T04:52:36;7.72;;;4.53;;
75427;SDS011;64008;55.612;37.698;2023-08-12T04:55:02;7.80;;;4.10;;
75427;SDS011;64008;55.612;37.698;2023-08-12T04:57:28;8.85;;;4.13;;
75427;SDS011;64008;55.612;37.698;2023-08-12T04:59:54;8.07;;;4.93;;
75427;SDS011;64008;55.612;37.698;2023-08-12T05:02:20;10.43;;;4.70;;
75427;SDS011;64008;55.612;37.698;2023-08-12T05:04:49;7.82;;;4.57;;
75427;SDS011;64008;55.612;37.698;2023-08-12T05:07:15;7.15;;;4.95;;
75427;SDS011;64008;55.612;37.698;2023-08-12T05:09:41;7.75;;;4.80;;
75427;SDS011;64008;55.612;37.698;2023-08-12T05:12:10;7.82;;;4.72;;
75427;SDS011;64008;55.612;37.698;2023-08-12T05:14:36;7.88;;;4.65;;
75427;SDS011;64008;55.612;37.698;2023-08-12T05:17:02;7.10;;;4.45;;
75427;SDS011;64008;55.612;37.698;2023-08-12T05:19:28;8.50;;;4.93;;
75427;SDS011;64008;55.612;37.698;2023-08-12T05:21:53;7.25;;;4.18;;
75427;SDS011;64008;55.612;37.698;2023-08-12T05:24:19;6.35;;;4.38;;
75427;SDS011;64008;55.612;37.698;2023-08-12T05:26:44;6.97;;;4.35;;
75427;SDS011;64008;55.612;37.698;2023-08-12T05:29:10;7.45;;;4.60;;
75427;SDS011;64008;55.612;37.698;2023-08-12T05:31:35;8.07;;;4.68;;
75427;SDS011;64008;55.612;37.698;2023-08-12T05:34:01;7.22;;;4.78;;
75427;SDS011;64008;55.612;37.698;2023-08-12T05:36:27;9.63;;;5.38;;
75427;SDS011;64008;55.612;37.698;2023-08-12T05:38:52;8.82;;;4.40;;
75427;SDS011;64008;55.612;37.698;2023-08-12T05:41:18;8.90;;;4.43;;
75427;SDS011;64008;55.612;37.698;2023-08-12T05:43:43;9.20;;;5.30;;
75427;SDS011;64008;55.612;37.698;2023-08-12T05:46:09;8.15;;;5.10;;
75427;SDS011;64008;55.612;37.698;2023-08-12T05:48:34;9.25;;;5.18;;
75427;SDS011;64008;55.612;37.698;2023-08-12T05:51:00;7.75;;;5.10;;
75427;SDS011;64008;55.612;37.698;2023-08-12T05:53:25;8.45;;;4.85;;
75427;SDS011;64008;55.612;37.698;2023-08-12T05:55:51;10.40;;;5.32;;
75427;SDS011;64008;55.612;37.698;2023-08-12T05:58:16;7.18;;;4.95;;
75427;SDS011;64008;55.612;37.698;2023-08-12T06:00:42;9.05;;;5.43;;
75427;SDS011;64008;55.612;37.698;2023-08-12T06:03:10;8.45;;;5.22;;
75427;SDS011;64008;55.612;37.698;2023-08-12T06:05:36;10.30;;;5.13;;
75427;SDS011;64008;55.612;37.698;2023-08-12T06:08:02;8.57;;;5.35;;
75427;SDS011;64008;55.612;37.698;2023-08-12T06:10:27;7.10;;;4.43;;
75427;SDS011;64008;55.612;37.698;2023-08-12T06:12:53;8.32;;;5.20;;
75427;SDS011;64008;55.612;37.698;2023-08-12T06:15:19;12.10;;;7.05;;
75427;SDS011;64008;55.612;37.698;2023-08-12T06:17:44;9.30;;;5.93;;
75427;SDS011;64008;55.612;37.698;2023-08-12T06:20:10;9.75;;;5.72;;
75427;SDS011;64008;55.612;37.698;2023-08-12T06:22:36;8.05;;;5.00;;
75427;SDS011;64008;55.612;37.698;2023-08-12T06:25:02;8.25;;;5.05;;
75427;SDS011;64008;55.612;37.698;2023-08-12T06:27:28;7.25;;;4.57;;
75427;SDS011;64008;55.612;37.698;2023-08-12T06:29:53;7.72;;;4.38;;
75427;SDS011;64008;55.612;37.698;2023-08-12T06:32:19;7.18;;;4.18;;
75427;SDS011;64008;55.612;37.698;2023-08-12T06:34:44;8.07;;;4.15;;
75427;SDS011;64008;55.612;37.698;2023-08-12T06:37:10;10.52;;;4.32;;
75427;SDS011;64008;55.612;37.698;2023-08-12T06:39:35;7.05;;;4.18;;
75427;SDS011;64008;55.612;37.698;2023-08-12T06:42:01;7.55;;;4.38;;
75427;SDS011;64008;55.612;37.698;2023-08-12T06:44:26;6.75;;;4.18;;
75427;SDS011;64008;55.612;37.698;2023-08-12T06:46:52;8.27;;;4.40;;
75427;SDS011;64008;55.612;37.698;2023-08-12T06:49:17;7.65;;;4.45;;
75427;SDS011;64008;55.612;37.698;2023-08-12T06:51:43;9.30;;;4.40;;
75427;SDS011;64008;55.612;37.698;2023-08-12T06:54:08;6.90;;;4.53;;
75427;SDS011;64008;55.612;37.698;2023-08-12T06:56:34;8.02;;;4.50;;
75427;SDS011;64008;55.612;37.698;2023-08-12T06:58:59;9.40;;;5.10;;
75427;SDS011;64008;55.612;37.698;2023-08-12T07:01:25;7.72;;;4.38;;
75427;SDS011;64008;55.612;37.698;2023-08-12T07:03:50;9.27;;;4.32;;
75427;SDS011;64008;55.612;37.698;2023-08-12T07:06:16;7.72;;;4.30;;
75427;SDS011;64008;55.612;37.698;2023-08-12T07:08:41;7.47;;;4.13;;
75427;SDS011;64008;55.612;37.698;2023-08-12T07:11:07;6.93;;;4.75;;
75427;SDS011;64008;55.612;37.698;2023-08-12T07:13:33;9.80;;;5.00;;
75427;SDS011;64008;55.612;37.698;2023-08-12T07:15:58;7.20;;;4.30;;
75427;SDS011;64008;55.612;37.698;2023-08-12T07:18:24;7.43;;;4.63;;
75427;SDS011;64008;55.612;37.698;2023-08-12T07:20:50;7.22;;;4.50;;
75427;SDS011;64008;55.612;37.698;2023-08-12T07:23:15;6.22;;;3.90;;
75427;SDS011;64008;55.612;37.698;2023-08-12T07:25:41;6.20;;;4.32;;
75427;SDS011;64008;55.612;37.698;2023-08-12T07:28:06;8.45;;;4.53;;
75427;SDS011;64008;55.612;37.698;2023-08-12T07:30:33;6.72;;;3.85;;
75427;SDS011;64008;55.612;37.698;2023-08-12T07:33:01;7.55;;;4.43;;
75427;SDS011;64008;55.612;37.698;2023-08-12T07:35:26;7.05;;;4.25;;
75427;SDS011;64008;55.612;37.698;2023-08-12T07:37:52;6.50;;;4.38;;
75427;SDS011;64008;55.612;37.698;2023-08-12T07:40:17;6.60;;;3.63;;
75427;SDS011;64008;55.612;37.698;2023-08-12T07:42:43;8.15;;;4.43;;
75427;SDS011;64008;55.612;37.698;2023-08-12T07:45:08;8.65;;;4.72;;
75427;SDS011;64008;55.612;37.698;2023-08-12T07:47:34;7.18;;;4.65;;
75427;SDS011;64008;55.612;37.698;2023-08-12T07:49:59;7.28;;;4.85;;
75427;SDS011;64008;55.612;37.698;2023-08-12T07:52:25;7.78;;;5.13;;
75427;SDS011;64008;55.612;37.698;2023-08-12T07:54:50;8.57;;;4.90;;
75427;SDS011;64008;55.612;37.698;2023-08-12T07:57:16;8.35;;;5.15;;
75427;SDS011;64008;55.612;37.698;2023-08-12T07:59:41;8.07;;;4.93;;
75427;SDS011;64008;55.612;37.698;2023-08-12T08:02:07;7.95;;;4.75;;
75427;SDS011;64008;55.612;37.698;2023-08-12T08:04:33;7.32;;;4.57;;
75427;SDS011;64008;55.612;37.698;2023-08-12T08:06:59;8.20;;;4.85;;
75427;SDS011;64008;55.612;37.698;2023-08-12T08:11:50;7.07;;;4.53;;
75427;SDS011;64008;55.612;37.698;2023-08-12T08:14:16;8.00;;;4.70;;
75427;SDS011;64008;55.612;37.698;2023-08-12T08:16:42;7.50;;;4.63;;
75427;SDS011;64008;55.612;37.698;2023-08-12T08:19:07;7.43;;;4.68;;
75427;SDS011;64008;55.612;37.698;2023-08-12T08:21:35;8.65;;;4.95;;
75427;SDS011;64008;55.612;37.698;2023-08-12T08:26:26;7.60;;;4.07;;
75427;SDS011;64008;55.612;37.698;2023-08-12T08:28:51;8.15;;;4.88;;
75427;SDS011;64008;55.612;37.698;2023-08-12T08:31:17;9.05;;;4.72;;
75427;SDS011;64008;55.612;37.698;2023-08-12T08:33:43;8.38;;;4.80;;
75427;SDS011;64008;55.612;37.698;2023-08-12T08:36:08;9.60;;;5.43;;
75427;SDS011;64008;55.612;37.698;2023-08-12T08:38:34;8.35;;;4.97;;
75427;SDS011;64008;55.612;37.698;2023-08-12T08:40:59;7.45;;;5.10;;
75427;SDS011;64008;55.612;37.698;2023-08-12T08:43:26;7.20;;;4.85;;
75427;SDS011;64008;55.612;37.698;2023-08-12T08:45:53;8.98;;;5.07;;
75427;SDS011;64008;55.612;37.698;2023-08-12T08:48:20;9.93;;;5.45;;
75427;SDS011;64008;55.612;37.698;2023-08-12T08:50:46;8.68;;;5.13;;
75427;SDS011;64008;55.612;37.698;2023-08-12T08:53:12;8.18;;;5.18;;
75427;SDS011;64008;55.612;37.698;2023-08-12T08:55:39;10.23;;;5.65;;
75427;SDS011;64008;55.612;37.698;2023-08-12T08:58:06;10.50;;;5.57;;
75427;SDS011;64008;55.612;37.698;2023-08-12T09:00:32;10.45;;;5.63;;
75427;SDS011;64008;55.612;37.698;2023-08-12T09:02:57;9.38;;;5.88;;
75427;SDS011;64008;55.612;37.698;2023-08-12T09:05:23;8.50;;;5.28;;
75427;SDS011;64008;55.612;37.698;2023-08-12T09:07:50;7.65;;;5.05;;
75427;SDS011;64008;55.612;37.698;2023-08-12T09:10:17;8.13;;;5.05;;
75427;SDS011;64008;55.612;37.698;2023-08-12T09:12:45;10.43;;;5.45;;
75427;SDS011;64008;55.612;37.698;2023-08-12T09:15:12;9.82;;;5.80;;
75427;SDS011;64008;55.612;37.698;2023-08-12T09:17:38;9.30;;;5.53;;
75427;SDS011;64008;55.612;37.698;2023-08-12T09:20:04;9.20;;;5.10;;
75427;SDS011;64008;55.612;37.698;2023-08-12T09:22:36;9.45;;;5.32;;
75427;SDS011;64008;55.612;37.698;2023-08-12T09:25:02;8.30;;;5.00;;
75427;SDS011;64008;55.612;37.698;2023-08-12T09:27:30;8.18;;;4.72;;
75427;SDS011;64008;55.612;37.698;2023-08-12T09:29:56;9.10;;;5.60;;
75427;SDS011;64008;55.612;37.698;2023-08-12T09:32:22;9.00;;;4.95;;
75427;SDS011;64008;55.612;37.698;2023-08-12T09:34:49;8.80;;;5.47;;
75427;SDS011;64008;55.612;37.698;2023-08-12T09:37:19;8.70;;;5.47;;
75427;SDS011;64008;55.612;37.698;2023-08-12T09:39:46;11.05;;;5.50;;
75427;SDS011;64008;55.612;37.698;2023-08-12T09:42:12;8.63;;;5.47;;
75427;SDS011;64008;55.612;37.698;2023-08-12T09:44:38;10.90;;;5.15;;
75427;SDS011;64008;55.612;37.698;2023-08-12T09:47:04;8.80;;;5.13;;
75427;SDS011;64008;55.612;37.698;2023-08-12T09:49:30;7.43;;;4.93;;
75427;SDS011;64008;55.612;37.698;2023-08-12T09:51:56;8.88;;;5.43;;
75427;SDS011;64008;55.612;37.698;2023-08-12T09:54:22;7.93;;;5.18;;
75427;SDS011;64008;55.612;37.698;2023-08-12T09:56:49;8.80;;;4.93;;
75427;SDS011;64008;55.612;37.698;2023-08-12T09:59:21;10.05;;;5.43;;
75427;SDS011;64008;55.612;37.698;2023-08-12T10:01:50;8.15;;;5.32;;
75427;SDS011;64008;55.612;37.698;2023-08-12T10:04:18;7.78;;;5.43;;
75427;SDS011;64008;55.612;37.698;2023-08-12T10:06:46;8.35;;;5.25;;
75427;SDS011;64008;55.612;37.698;2023-08-12T10:09:14;7.95;;;4.97;;
75427;SDS011;64008;55.612;37.698;2023-08-12T10:11:41;7.72;;;4.68;;
75427;SDS011;64008;55.612;37.698;2023-08-12T10:14:09;9.50;;;5.53;;
75427;SDS011;64008;55.612;37.698;2023-08-12T10:16:35;8.80;;;4.95;;
75427;SDS011;64008;55.612;37.698;2023-08-12T10:19:02;8.13;;;5.28;;
75427;SDS011;64008;55.612;37.698;2023-08-12T10:21:29;9.32;;;5.53;;
75427;SDS011;64008;55.612;37.698;2023-08-12T10:23:55;8.55;;;5.45;;
75427;SDS011;64008;55.612;37.698;2023-08-12T10:26:24;8.05;;;5.53;;
75427;SDS011;64008;55.612;37.698;2023-08-12T10:28:50;10.00;;;5.20;;
75427;SDS011;64008;55.612;37.698;2023-08-12T10:31:15;8.13;;;5.28;;
75427;SDS011;64008;55.612;37.698;2023-08-12T10:33:41;8.55;;;5.20;;
75427;SDS011;64008;55.612;37.698;2023-08-12T10:36:08;7.43;;;5.13;;
75427;SDS011;64008;55.612;37.698;2023-08-12T10:38:34;9.98;;;5.07;;
75427;SDS011;64008;55.612;37.698;2023-08-12T10:46:21;7.18;;;4.82;;
75427;SDS011;64008;55.612;37.698;2023-08-12T10:54:25;8.68;;;5.32;;
75427;SDS011;64008;55.612;37.698;2023-08-12T10:59:47;8.00;;;5.80;;
75427;SDS011;64008;55.612;37.698;2023-08-12T11:02:20;10.35;;;5.45;;
75427;SDS011;64008;55.612;37.698;2023-08-12T11:05:02;11.73;;;5.88;;
75427;SDS011;64008;55.612;37.698;2023-08-12T11:07:42;11.10;;;5.70;;
75427;SDS011;64008;55.612;37.698;2023-08-12T11:10:14;7.85;;;5.28;;
75427;SDS011;64008;55.612;37.698;2023-08-12T11:12:47;8.98;;;5.68;;
75427;SDS011;64008;55.612;37.698;2023-08-12T11:15:13;8.90;;;5.50;;
75427;SDS011;64008;55.612;37.698;2023-08-12T11:17:39;8.30;;;5.53;;
75427;SDS011;64008;55.612;37.698;2023-08-12T11:20:09;10.60;;;5.65;;
75427;SDS011;64008;55.612;37.698;2023-08-12T11:22:37;9.88;;;6.00;;
75427;SDS011;64008;55.612;37.698;2023-08-12T11:25:06;11.13;;;5.80;;
75427;SDS011;64008;55.612;37.698;2023-08-12T11:27:46;9.60;;;5.47;;
75427;SDS011;64008;55.612;37.698;2023-08-12T11:30:13;8.07;;;5.22;;
75427;SDS011;64008;55.612;37.698;2023-08-12T11:32:41;8.63;;;4.97;;
75427;SDS011;64008;55.612;37.698;2023-08-12T11:35:08;9.40;;;5.43;;
75427;SDS011;64008;55.612;37.698;2023-08-12T11:37:36;8.68;;;5.03;;
75427;SDS011;64008;55.612;37.698;2023-08-12T11:40:03;8.50;;;5.78;;
75427;SDS011;64008;55.612;37.698;2023-08-12T11:42:30;10.98;;;5.30;;
75427;SDS011;64008;55.612;37.698;2023-08-12T11:44:55;9.30;;;5.18;;
75427;SDS011;64008;55.612;37.698;2023-08-12T11:47:21;8.65;;;5.15;;
75427;SDS011;64008;55.612;37.698;2023-08-12T11:49:46;9.23;;;5.55;;
75427;SDS011;64008;55.612;37.698;2023-08-12T11:52:12;9.90;;;5.28;;
75427;SDS011;64008;55.612;37.698;2023-08-12T11:54:38;9.05;;;5.43;;
75427;SDS011;64008;55.612;37.698;2023-08-12T11:57:04;10.73;;;6.18;;
75427;SDS011;64008;55.612;37.698;2023-08-12T11:59:30;10.77;;;5.60;;
75427;SDS011;64008;55.612;37.698;2023-08-12T12:01:56;10.70;;;5.78;;
75427;SDS011;64008;55.612;37.698;2023-08-12T12:04:21;8.90;;;5.45;;
75427;SDS011;64008;55.612;37.698;2023-08-12T12:06:47;10.43;;;4.90;;
75427;SDS011;64008;55.612;37.698;2023-08-12T12:09:13;9.18;;;5.72;;
75427;SDS011;64008;55.612;37.698;2023-08-12T12:11:39;8.70;;;5.07;;
75427;SDS011;64008;55.612;37.698;2023-08-12T12:14:07;9.93;;;4.88;;
75427;SDS011;64008;55.612;37.698;2023-08-12T12:16:38;10.35;;;6.10;;
75427;SDS011;64008;55.612;37.698;2023-08-12T12:19:15;8.27;;;5.03;;
75427;SDS011;64008;55.612;37.698;2023-08-12T12:21:41;9.18;;;5.38;;
75427;SDS011;64008;55.612;37.698;2023-08-12T12:24:08;9.98;;;5.28;;
75427;SDS011;64008;55.612;37.698;2023-08-12T12:26:35;8.63;;;4.60;;
75427;SDS011;64008;55.612;37.698;2023-08-12T12:29:01;9.98;;;5.30;;
75427;SDS011;64008;55.612;37.698;2023-08-12T12:31:34;8.52;;;5.07;;
75427;SDS011;64008;55.612;37.698;2023-08-12T12:34:03;7.70;;;4.90;;
75427;SDS011;64008;55.612;37.698;2023-08-12T12:36:36;8.50;;;4.72;;
75427;SDS011;64008;55.612;37.698;2023-08-12T12:39:03;9.43;;;5.40;;
75427;SDS011;64008;55.612;37.698;2023-08-12T12:41:30;7.30;;;4.60;;
75427;SDS011;64008;55.612;37.698;2023-08-12T12:43:55;8.05;;;4.30;;
75427;SDS011;64008;55.612;37.698;2023-08-12T12:46:21;9.60;;;4.32;;
75427;SDS011;64008;55.612;37.698;2023-08-12T12:48:47;7.35;;;4.65;;
75427;SDS011;64008;55.612;37.698;2023-08-12T12:51:13;8.65;;;4.65;;
75427;SDS011;64008;55.612;37.698;2023-08-12T12:53:38;10.52;;;4.95;;
75427;SDS011;64008;55.612;37.698;2023-08-12T12:56:05;9.20;;;4.68;;
75427;SDS011;64008;55.612;37.698;2023-08-12T12:58:34;8.27;;;4.88;;
75427;SDS011;64008;55.612;37.698;2023-08-12T13:01:01;6.78;;;3.97;;
75427;SDS011;64008;55.612;37.698;2023-08-12T13:05:54;6.10;;;3.45;;
75427;SDS011;64008;55.612;37.698;2023-08-12T13:08:20;8.20;;;4.15;;
75427;SDS011;64008;55.612;37.698;2023-08-12T13:10:46;7.47;;;3.80;;
75427;SDS011;64008;55.612;37.698;2023-08-12T13:13:12;6.47;;;4.18;;
75427;SDS011;64008;55.612;37.698;2023-08-12T13:15:39;6.55;;;4.13;;
75427;SDS011;64008;55.612;37.698;2023-08-12T13:18:05;7.57;;;3.75;;
75427;SDS011;64008;55.612;37.698;2023-08-12T13:20:30;7.30;;;4.07;;
75427;SDS011;64008;55.612;37.698;2023-08-12T13:22:56;9.05;;;4.32;;
75427;SDS011;64008;55.612;37.698;2023-08-12T13:25:21;7.25;;;4.00;;
75427;SDS011;64008;55.612;37.698;2023-08-12T13:27:47;7.10;;;4.30;;
75427;SDS011;64008;55.612;37.698;2023-08-12T13:30:12;8.13;;;4.60;;
75427;SDS011;64008;55.612;37.698;2023-08-12T13:32:38;8.23;;;4.55;;
75427;SDS011;64008;55.612;37.698;2023-08-12T13:35:03;8.32;;;4.30;;
75427;SDS011;64008;55.612;37.698;2023-08-12T13:37:30;8.65;;;4.72;;
75427;SDS011;64008;55.612;37.698;2023-08-12T13:39:57;10.13;;;4.90;;
75427;SDS011;64008;55.612;37.698;2023-08-12T13:42:22;8.23;;;4.15;;
75427;SDS011;64008;55.612;37.698;2023-08-12T13:44:48;7.93;;;4.22;;
75427;SDS011;64008;55.612;37.698;2023-08-12T13:47:13;8.52;;;4.72;;
75427;SDS011;64008;55.612;37.698;2023-08-12T13:49:39;8.13;;;4.68;;
75427;SDS011;64008;55.612;37.698;2023-08-12T13:52:04;9.98;;;5.15;;
75427;SDS011;64008;55.612;37.698;2023-08-12T13:54:30;8.43;;;4.80;;
75427;SDS011;64008;55.612;37.698;2023-08-12T13:56:55;9.63;;;5.00;;
75427;SDS011;64008;55.612;37.698;2023-08-12T13:59:21;8.80;;;4.80;;
75427;SDS011;64008;55.612;37.698;2023-08-12T14:01:46;8.32;;;5.30;;
75427;SDS011;64008;55.612;37.698;2023-08-12T14:04:12;8.95;;;5.15;;
75427;SDS011;64008;55.612;37.698;2023-08-12T14:06:38;12.23;;;5.45;;
75427;SDS011;64008;55.612;37.698;2023-08-12T14:09:05;8.60;;;5.32;;
75427;SDS011;64008;55.612;37.698;2023-08-12T14:11:33;7.90;;;4.95;;
75427;SDS011;64008;55.612;37.698;2023-08-12T14:13:58;9.48;;;5.20;;
75427;SDS011;64008;55.612;37.698;2023-08-12T14:16:24;10.90;;;5.15;;
75427;SDS011;64008;55.612;37.698;2023-08-12T14:18:49;10.05;;;5.10;;
75427;SDS011;64008;55.612;37.698;2023-08-12T14:21:15;10.07;;;5.25;;
75427;SDS011;64008;55.612;37.698;2023-08-12T14:23:40;9.45;;;4.80;;
75427;SDS011;64008;55.612;37.698;2023-08-12T14:26:06;9.50;;;5.40;;
75427;SDS011;64008;55.612;37.698;2023-08-12T14:28:31;8.80;;;5.05;;
75427;SDS011;64008;55.612;37.698;2023-08-12T14:30:57;8.98;;;4.97;;
75427;SDS011;64008;55.612;37.698;2023-08-12T14:33:22;9.43;;;5.25;;
75427;SDS011;64008;55.612;37.698;2023-08-12T14:35:50;9.95;;;4.75;;
75427;SDS011;64008;55.612;37.698;2023-08-12T14:38:17;8.55;;;4.50;;
75427;SDS011;64008;55.612;37.698;2023-08-12T14:40:47;7.57;;;4.25;;
75427;SDS011;64008;55.612;37.698;2023-08-12T14:43:13;9.93;;;4.50;;
75427;SDS011;64008;55.612;37.698;2023-08-12T14:45:40;10.25;;;4.70;;
75427;SDS011;64008;55.612;37.698;2023-08-12T14:48:05;8.75;;;4.35;;
75427;SDS011;64008;55.612;37.698;2023-08-12T14:50:31;7.47;;;4.75;;
75427;SDS011;64008;55.612;37.698;2023-08-12T14:52:57;8.63;;;4.85;;
75427;SDS011;64008;55.612;37.698;2023-08-12T14:55:22;7.40;;;4.35;;
75427;SDS011;64008;55.612;37.698;2023-08-12T14:57:48;9.90;;;4.55;;